createdAt,value
2018-05-29T00:00:11.583Z,20.00
2018-05-29T00:02:41.163Z,20.00
2018-05-29T00:05:10.209Z,19.90
2018-05-29T00:07:39.798Z,19.90
2018-05-29T00:10:08.710Z,19.90
2018-05-29T00:12:38.303Z,19.80
2018-05-29T00:15:07.183Z,19.80
2018-05-29T00:17:36.742Z,19.70
2018-05-29T00:20:05.607Z,19.70
2018-05-29T00:22:34.418Z,19.60
2018-05-29T00:25:03.340Z,19.60
2018-05-29T00:27:32.903Z,19.50
2018-05-29T00:30:01.837Z,19.50
2018-05-29T00:32:31.445Z,19.40
2018-05-29T00:35:00.272Z,19.40
2018-05-29T00:37:29.884Z,19.40
2018-05-29T00:39:59.454Z,19.30
2018-05-29T00:42:28.278Z,19.30
2018-05-29T00:44:57.104Z,19.30
2018-05-29T00:47:25.929Z,19.30
2018-05-29T00:50:07.749Z,19.20
2018-05-29T00:52:36.566Z,19.20
2018-05-29T00:55:23.123Z,19.20
2018-05-29T00:57:51.943Z,19.20
2018-05-29T01:00:20.765Z,19.10
2018-05-29T01:02:49.585Z,19.10
2018-05-29T01:05:18.514Z,19.10
2018-05-29T01:07:48.100Z,19.10
2018-05-29T01:10:17.712Z,19.10
2018-05-29T01:12:47.286Z,19.10
2018-05-29T01:15:16.084Z,19.10
2018-05-29T01:17:44.875Z,19.10
2018-05-29T01:20:13.715Z,19.10
2018-05-29T01:22:42.514Z,19.00
2018-05-29T01:25:12.087Z,19.00
2018-05-29T01:27:41.652Z,19.00
2018-05-29T01:30:10.464Z,19.00
2018-05-29T01:32:40.060Z,18.90
2018-05-29T01:35:09.629Z,18.90
2018-05-29T01:37:38.458Z,18.90
2018-05-29T01:40:08.023Z,18.90
2018-05-29T01:42:36.902Z,18.80
2018-05-29T01:45:06.500Z,18.90
2018-05-29T01:47:36.093Z,18.90
2018-05-29T01:50:05.028Z,18.90
2018-05-29T01:52:34.713Z,18.80
2018-05-29T01:55:03.518Z,18.80
2018-05-29T01:57:32.428Z,18.80
2018-05-29T02:00:02.144Z,18.70
2018-05-29T02:02:31.706Z,18.70
2018-05-29T02:05:00.526Z,18.70
2018-05-29T02:07:30.112Z,18.70
2018-05-29T02:09:58.906Z,18.70
2018-05-29T02:12:28.538Z,18.70
2018-05-29T02:14:57.432Z,18.70
2018-05-29T02:17:27.034Z,18.70
2018-05-29T02:20:05.634Z,18.70
2018-05-29T02:22:34.703Z,18.70
2018-05-29T02:25:03.498Z,18.70
2018-05-29T02:27:32.373Z,18.70
2018-05-29T02:30:01.981Z,18.70
2018-05-29T02:32:31.580Z,18.70
2018-05-29T02:35:01.180Z,18.70
2018-05-29T02:37:29.986Z,18.60
2018-05-29T02:39:58.876Z,18.70
2018-05-29T02:42:28.447Z,18.60
2018-05-29T02:44:57.315Z,18.60
2018-05-29T02:47:26.927Z,18.60
2018-05-29T02:50:05.710Z,18.60
2018-05-29T02:52:34.510Z,18.60
2018-05-29T02:55:03.329Z,18.60
2018-05-29T02:57:32.125Z,18.60
2018-05-29T03:00:01.022Z,18.60
2018-05-29T03:02:29.913Z,18.60
2018-05-29T03:04:58.723Z,18.60
2018-05-29T03:07:27.546Z,18.60
2018-05-29T03:09:57.263Z,18.70
2018-05-29T03:12:26.828Z,18.70
2018-05-29T03:14:55.658Z,18.60
2018-05-29T03:17:24.464Z,18.70
2018-05-29T03:19:53.266Z,18.70
2018-05-29T03:22:22.199Z,18.70
2018-05-29T03:24:51.003Z,18.70
2018-05-29T03:27:20.582Z,18.60
2018-05-29T03:29:49.476Z,18.60
2018-05-29T03:32:18.312Z,18.60
2018-05-29T03:34:47.117Z,18.50
2018-05-29T03:37:16.724Z,18.50
2018-05-29T03:39:46.309Z,18.50
2018-05-29T03:42:15.134Z,18.50
2018-05-29T03:44:43.945Z,18.60
2018-05-29T03:47:12.781Z,18.60
2018-05-29T03:49:41.601Z,18.60
2018-05-29T03:52:10.409Z,18.50
2018-05-29T03:54:39.353Z,18.50
2018-05-29T03:57:08.933Z,18.50
2018-05-29T03:59:37.739Z,18.50
2018-05-29T04:02:06.556Z,18.50
2018-05-29T04:04:35.359Z,18.60
2018-05-29T04:07:05.797Z,18.60
2018-05-29T04:09:34.704Z,18.60
2018-05-29T04:12:03.612Z,18.60
2018-05-29T04:14:32.431Z,18.60
2018-05-29T04:17:01.389Z,18.60
2018-05-29T04:19:30.967Z,18.60
2018-05-29T04:22:00.949Z,18.70
2018-05-29T04:24:29.765Z,18.70
2018-05-29T04:26:58.567Z,18.70
2018-05-29T04:29:27.422Z,18.80
2018-05-29T04:31:56.229Z,18.80
2018-05-29T04:34:25.045Z,18.80
2018-05-29T04:36:53.848Z,18.80
2018-05-29T04:39:22.683Z,18.80
2018-05-29T04:41:52.279Z,18.90
2018-05-29T04:44:21.097Z,18.90
2018-05-29T04:46:49.906Z,18.90
2018-05-29T04:49:18.714Z,18.90
2018-05-29T04:51:48.394Z,19.10
2018-05-29T04:54:17.203Z,19.00
2018-05-29T04:56:46.034Z,19.10
2018-05-29T04:59:15.786Z,19.20
2018-05-29T05:01:45.302Z,19.20
2018-05-29T05:04:14.222Z,19.20
2018-05-29T05:06:43.801Z,19.20
2018-05-29T05:09:12.731Z,19.20
2018-05-29T05:11:42.307Z,19.30
2018-05-29T05:14:11.135Z,19.30
2018-05-29T05:16:40.032Z,19.30
2018-05-29T05:19:08.930Z,19.30
2018-05-29T05:21:38.523Z,19.40
2018-05-29T05:24:08.044Z,19.40
2018-05-29T05:26:36.847Z,19.50
2018-05-29T05:29:06.430Z,19.60
2018-05-29T05:31:35.226Z,19.60
2018-05-29T05:34:04.038Z,19.70
2018-05-29T05:36:32.865Z,19.70
2018-05-29T05:39:01.671Z,19.80
2018-05-29T05:41:30.495Z,19.80
2018-05-29T05:43:59.445Z,19.90
2018-05-29T05:46:29.028Z,20.00
2018-05-29T05:48:57.851Z,20.00
2018-05-29T05:51:27.408Z,20.10
2018-05-29T05:53:56.982Z,20.10
2018-05-29T05:56:25.806Z,20.10
2018-05-29T05:58:54.682Z,20.20
2018-05-29T06:01:23.582Z,20.30
2018-05-29T06:03:53.704Z,20.30
2018-05-29T06:06:22.567Z,20.30
2018-05-29T06:08:51.356Z,20.40
2018-05-29T06:11:20.942Z,20.50
2018-05-29T06:13:49.766Z,20.50
2018-05-29T06:16:18.640Z,20.60
2018-05-29T06:18:47.533Z,20.60
2018-05-29T06:21:16.331Z,20.70
2018-05-29T06:23:45.875Z,20.80
2018-05-29T06:26:14.816Z,20.80
2018-05-29T06:28:44.384Z,20.90
2018-05-29T06:31:13.199Z,20.90
2018-05-29T06:33:42.761Z,21.00
2018-05-29T06:36:11.544Z,21.00
2018-05-29T06:38:40.427Z,21.10
2018-05-29T06:41:09.197Z,21.10
2018-05-29T06:43:38.006Z,21.20
2018-05-29T06:46:06.853Z,21.20
2018-05-29T06:48:36.416Z,21.30
2018-05-29T06:51:05.220Z,21.30
2018-05-29T06:53:34.020Z,21.40
2018-05-29T06:56:02.838Z,21.50
2018-05-29T06:58:31.754Z,21.60
2018-05-29T07:01:00.640Z,21.70
2018-05-29T07:03:29.440Z,21.70
2018-05-29T07:05:58.248Z,21.80
2018-05-29T07:08:27.068Z,21.80
2018-05-29T07:10:56.662Z,22.00
2018-05-29T07:13:25.939Z,22.00
2018-05-29T07:15:55.556Z,22.10
2018-05-29T07:18:24.353Z,22.10
2018-05-29T07:20:53.167Z,22.20
2018-05-29T07:23:21.953Z,22.20
2018-05-29T07:25:51.570Z,22.30
2018-05-29T07:28:20.480Z,22.30
2018-05-29T07:30:50.116Z,22.30
2018-05-29T07:33:18.916Z,22.30
2018-05-29T07:35:47.742Z,22.30
2018-05-29T07:38:16.563Z,22.40
2018-05-29T07:40:45.407Z,22.30
2018-05-29T07:43:14.961Z,22.50
2018-05-29T07:45:43.779Z,22.40
2018-05-29T07:48:12.583Z,22.50
2018-05-29T07:50:42.163Z,22.60
2018-05-29T07:53:10.951Z,22.60
2018-05-29T07:55:40.521Z,22.70
2018-05-29T07:58:09.318Z,22.70
2018-05-29T08:00:38.127Z,22.80
2018-05-29T08:03:07.729Z,22.90
2018-05-29T08:05:37.307Z,22.90
2018-05-29T08:08:06.089Z,22.90
2018-05-29T08:10:34.916Z,23.10
2018-05-29T08:13:03.689Z,23.10
2018-05-29T08:15:32.502Z,23.20
2018-05-29T08:18:01.303Z,23.30
2018-05-29T08:20:30.853Z,23.50
2018-05-29T08:22:59.715Z,23.50
2018-05-29T08:25:28.538Z,23.60
2018-05-29T08:27:57.342Z,23.70
2018-05-29T08:30:26.932Z,23.80
2018-05-29T08:32:55.847Z,23.80
2018-05-29T08:35:24.627Z,23.90
2018-05-29T08:37:53.451Z,23.90
2018-05-29T08:40:22.319Z,23.90
2018-05-29T08:42:51.881Z,24.00
2018-05-29T08:45:20.679Z,24.00
2018-05-29T08:47:49.481Z,24.10
2018-05-29T08:50:19.051Z,24.20
2018-05-29T08:52:47.867Z,24.20
2018-05-29T08:55:16.667Z,24.20
2018-05-29T08:57:45.482Z,24.30
2018-05-29T09:00:14.273Z,24.40
2018-05-29T09:02:43.683Z,24.50
2018-05-29T09:05:12.503Z,24.50
2018-05-29T09:07:41.359Z,24.60
2018-05-29T09:10:11.030Z,24.70
2018-05-29T09:12:40.574Z,24.80
2018-05-29T09:15:09.387Z,24.80
2018-05-29T09:17:38.951Z,24.90
2018-05-29T09:20:07.789Z,24.90
2018-05-29T09:22:37.341Z,25.00
2018-05-29T09:25:06.167Z,25.00
2018-05-29T09:27:35.774Z,25.10
2018-05-29T09:30:04.595Z,25.00
2018-05-29T09:32:34.150Z,25.10
2018-05-29T09:35:02.975Z,25.10
2018-05-29T09:37:31.846Z,25.10
2018-05-29T09:40:01.386Z,25.20
2018-05-29T09:42:30.315Z,25.20
2018-05-29T09:44:59.869Z,25.30
2018-05-29T09:47:28.689Z,25.30
2018-05-29T09:49:58.270Z,25.40
2018-05-29T09:52:27.069Z,25.30
2018-05-29T09:54:55.860Z,25.30
2018-05-29T09:57:24.679Z,25.40
2018-05-29T09:59:54.236Z,25.40
2018-05-29T10:02:23.030Z,25.40
2018-05-29T10:04:52.604Z,25.60
2018-05-29T10:07:21.425Z,25.60
2018-05-29T10:09:50.230Z,25.70
2018-05-29T10:12:19.922Z,25.70
2018-05-29T10:14:48.720Z,25.70
2018-05-29T10:17:17.900Z,25.70
2018-05-29T10:19:46.778Z,25.70
2018-05-29T10:22:16.393Z,25.80
2018-05-29T10:24:45.976Z,25.80
2018-05-29T10:27:14.765Z,25.80
2018-05-29T10:29:44.941Z,25.90
2018-05-29T10:32:13.732Z,25.90
2018-05-29T10:34:42.564Z,26.00
2018-05-29T10:37:11.396Z,26.10
2018-05-29T10:39:40.980Z,26.30
2018-05-29T10:42:09.793Z,26.20
2018-05-29T10:44:38.577Z,26.30
2018-05-29T10:47:07.370Z,26.40
2018-05-29T10:49:36.168Z,26.50
2018-05-29T10:52:04.990Z,26.60
2018-05-29T10:54:33.786Z,26.60
2018-05-29T10:57:02.636Z,26.60
2018-05-29T10:59:31.463Z,26.70
2018-05-29T11:02:00.334Z,26.80
2018-05-29T11:04:29.921Z,26.90
2018-05-29T11:06:58.792Z,26.90
2018-05-29T11:09:28.285Z,27.10
2018-05-29T11:11:57.108Z,27.10
2018-05-29T11:14:26.027Z,27.10
2018-05-29T11:16:55.697Z,27.30
2018-05-29T11:19:24.520Z,27.30
2018-05-29T11:21:54.091Z,27.50
2018-05-29T11:24:22.923Z,27.50
2018-05-29T11:26:52.495Z,27.50
2018-05-29T11:29:21.290Z,27.50
2018-05-29T11:31:50.090Z,27.50
2018-05-29T11:34:18.911Z,27.50
2018-05-29T11:36:47.829Z,27.60
2018-05-29T11:39:17.427Z,27.60
2018-05-29T11:41:46.255Z,27.70
2018-05-29T11:44:15.125Z,27.70
2018-05-29T11:46:44.689Z,27.70
2018-05-29T11:49:13.503Z,27.70
2018-05-29T11:51:43.090Z,27.60
2018-05-29T11:54:11.929Z,27.60
2018-05-29T11:56:41.498Z,27.60
2018-05-29T11:59:11.329Z,27.60
2018-05-29T12:01:40.164Z,27.60
2018-05-29T12:04:08.977Z,27.60
2018-05-29T12:06:38.579Z,27.60
2018-05-29T12:09:08.175Z,27.70
2018-05-29T12:11:36.982Z,27.70
2018-05-29T12:14:05.865Z,27.70
2018-05-29T12:16:34.665Z,27.70
2018-05-29T12:19:04.223Z,27.60
2018-05-29T12:21:33.017Z,27.70
2018-05-29T12:24:01.837Z,27.70
2018-05-29T12:26:30.719Z,27.70
2018-05-29T12:29:00.296Z,27.70
2018-05-29T12:31:29.111Z,27.70
2018-05-29T12:33:57.927Z,27.20
2018-05-29T12:36:27.503Z,27.90
2018-05-29T12:38:56.292Z,27.90
2018-05-29T12:41:25.123Z,28.00
2018-05-29T12:43:54.677Z,28.20
2018-05-29T12:46:23.576Z,28.20
2018-05-29T12:48:52.358Z,28.40
2018-05-29T12:51:21.201Z,28.50
2018-05-29T12:53:50.004Z,28.70
2018-05-29T12:56:19.583Z,29.10
2018-05-29T12:58:48.380Z,29.10
2018-05-29T13:01:17.194Z,29.30
2018-05-29T13:03:49.455Z,29.70
2018-05-29T13:06:18.259Z,29.70
2018-05-29T13:08:47.824Z,30.00
2018-05-29T13:11:16.638Z,30.00
2018-05-29T13:13:49.068Z,30.10
2018-05-29T13:16:17.901Z,30.20
2018-05-29T13:18:46.711Z,30.20
2018-05-29T13:21:15.503Z,30.10
2018-05-29T13:23:44.356Z,30.20
2018-05-29T13:26:13.160Z,30.30
2018-05-29T13:28:42.718Z,30.30
2018-05-29T13:33:48.288Z,30.30
2018-05-29T13:36:17.962Z,30.30
2018-05-29T13:38:47.570Z,30.40
2018-05-29T13:41:17.132Z,30.50
2018-05-29T13:43:45.936Z,30.50
2018-05-29T13:46:15.514Z,30.90
2018-05-29T13:48:44.319Z,30.90
2018-05-29T13:51:13.947Z,31.00
2018-05-29T13:53:49.447Z,31.00
2018-05-29T13:56:18.331Z,31.00
2018-05-29T13:58:47.894Z,30.80
2018-05-29T14:01:16.706Z,30.80
2018-05-29T14:03:46.040Z,30.70
2018-05-29T14:06:14.861Z,30.60
2018-05-29T14:08:43.646Z,30.50
2018-05-29T14:11:12.464Z,30.50
2018-05-29T14:13:41.242Z,30.40
2018-05-29T14:16:10.076Z,30.40
2018-05-29T14:18:38.866Z,30.20
2018-05-29T14:21:07.780Z,29.80
2018-05-29T14:23:37.620Z,29.20
2018-05-29T14:26:07.204Z,28.90
2018-05-29T14:28:36.128Z,28.90
2018-05-29T14:31:05.704Z,28.50
2018-05-29T14:33:35.286Z,28.30
2018-05-29T14:36:04.129Z,28.30
2018-05-29T14:38:33.747Z,27.90
2018-05-29T14:41:03.302Z,27.70
2018-05-29T14:43:32.158Z,27.70
2018-05-29T14:46:01.750Z,27.40
2018-05-29T14:48:30.653Z,27.40
2018-05-29T14:50:59.467Z,27.30
2018-05-29T14:53:28.278Z,27.10
2018-05-29T14:55:57.110Z,27.00
2018-05-29T14:58:25.950Z,27.00
2018-05-29T15:00:54.760Z,26.70
2018-05-29T15:03:24.566Z,26.10
2018-05-29T15:05:53.396Z,26.00
2018-05-29T15:08:22.243Z,25.80
2018-05-29T15:10:51.042Z,25.60
2018-05-29T15:13:20.370Z,25.50
2018-05-29T15:15:49.206Z,25.50
2018-05-29T15:18:18.787Z,25.40
2018-05-29T15:20:47.604Z,25.40
2018-05-29T15:23:16.395Z,25.40
2018-05-29T15:25:45.229Z,25.40
2018-05-29T15:28:14.840Z,25.40
2018-05-29T15:30:44.453Z,25.40
2018-05-29T15:33:14.017Z,25.40
2018-05-29T15:35:43.829Z,25.40
2018-05-29T15:38:12.673Z,25.40
2018-05-29T15:40:41.529Z,25.30
2018-05-29T15:43:10.327Z,25.30
2018-05-29T15:45:39.183Z,25.30
2018-05-29T15:48:07.962Z,25.20
2018-05-29T15:50:36.776Z,25.20
2018-05-29T15:53:05.608Z,25.30
2018-05-29T15:55:34.401Z,25.30
2018-05-29T15:58:03.207Z,25.30
2018-05-29T16:00:32.021Z,25.30
2018-05-29T16:03:00.821Z,25.20
2018-05-29T16:05:29.649Z,25.20
2018-05-29T16:07:58.485Z,25.20
2018-05-29T16:10:27.408Z,25.10
2018-05-29T16:12:56.977Z,25.10
2018-05-29T16:15:25.877Z,25.10
2018-05-29T16:17:56.196Z,25.10
2018-05-29T16:20:25.011Z,25.10
2018-05-29T16:22:53.853Z,25.10
2018-05-29T16:25:23.423Z,25.20
2018-05-29T16:27:52.315Z,25.20
2018-05-29T16:30:21.127Z,25.20
2018-05-29T16:32:50.715Z,25.30
2018-05-29T16:35:19.624Z,25.30
2018-05-29T16:37:49.209Z,25.30
2018-05-29T16:40:17.998Z,25.30
2018-05-29T16:42:46.799Z,25.30
2018-05-29T16:45:15.708Z,25.20
2018-05-29T16:47:45.308Z,25.30
2018-05-29T16:50:15.656Z,25.30
2018-05-29T16:52:45.220Z,25.40
2018-05-29T16:55:14.056Z,25.40
2018-05-29T16:57:42.882Z,25.40
2018-05-29T17:00:11.689Z,25.40
2018-05-29T17:02:40.482Z,25.40
2018-05-29T17:05:09.315Z,25.40
2018-05-29T17:07:38.890Z,25.30
2018-05-29T17:10:07.698Z,25.30
2018-05-29T17:12:38.160Z,25.10
2018-05-29T17:15:07.803Z,24.90
2018-05-29T17:17:37.370Z,24.80
2018-05-29T17:20:07.106Z,24.60
2018-05-29T17:22:35.959Z,24.60
2018-05-29T17:25:04.760Z,24.50
2018-05-29T17:27:34.360Z,24.30
2018-05-29T17:30:03.285Z,24.30
2018-05-29T17:32:32.872Z,24.10
2018-05-29T17:35:01.700Z,24.10
2018-05-29T17:37:31.302Z,24.00
2018-05-29T17:40:00.865Z,23.90
2018-05-29T17:42:29.682Z,23.90
2018-05-29T17:44:58.552Z,23.90
2018-05-29T17:47:28.087Z,23.90
2018-05-29T17:50:05.391Z,23.90
2018-05-29T17:52:34.261Z,23.90
2018-05-29T17:55:03.077Z,23.90
2018-05-29T17:57:31.910Z,23.90
2018-05-29T18:00:01.499Z,23.80
2018-05-29T18:02:31.125Z,23.70
2018-05-29T18:05:00.689Z,23.70
2018-05-29T18:07:29.509Z,23.70
2018-05-29T18:09:59.127Z,23.60
2018-05-29T18:12:28.715Z,23.60
2018-05-29T18:14:57.594Z,23.50
2018-05-29T18:17:27.143Z,23.50
2018-05-29T18:20:05.941Z,23.40
2018-05-29T18:22:34.756Z,23.40
2018-05-29T18:25:04.354Z,23.30
2018-05-29T18:27:33.246Z,23.30
2018-05-29T18:30:02.150Z,23.20
2018-05-29T18:32:31.861Z,23.20
2018-05-29T18:35:01.452Z,23.20
2018-05-29T18:37:31.003Z,23.10
2018-05-29T18:39:59.840Z,23.00
2018-05-29T18:42:28.648Z,23.10
2018-05-29T18:44:57.504Z,23.00
2018-05-29T18:47:27.090Z,22.90
2018-05-29T18:49:55.976Z,22.90
2018-05-29T18:52:24.731Z,22.90
2018-05-29T18:54:53.579Z,22.90
2018-05-29T18:57:22.383Z,22.90
2018-05-29T18:59:51.947Z,22.80
2018-05-29T19:02:20.876Z,22.80
2018-05-29T19:04:49.661Z,22.70
2018-05-29T19:07:18.457Z,22.70
2018-05-29T19:09:47.316Z,22.70
2018-05-29T19:12:16.888Z,22.60
2018-05-29T19:14:46.974Z,22.60
2018-05-29T19:17:15.831Z,22.60
2018-05-29T19:22:24.329Z,22.50
2018-05-29T19:24:53.152Z,22.50
2018-05-29T19:27:21.973Z,22.50
2018-05-29T19:29:51.593Z,22.20
2018-05-29T19:32:21.155Z,21.90
2018-05-29T19:34:49.989Z,21.90
2018-05-29T19:37:18.872Z,21.50
2018-05-29T19:39:48.445Z,21.10
2018-05-29T19:42:18.071Z,21.00
2018-05-29T19:44:47.669Z,20.90
2018-05-29T19:47:16.470Z,20.90
2018-05-29T19:49:45.291Z,20.90
2018-05-29T19:52:14.128Z,20.90
2018-05-29T19:54:42.951Z,20.80
2018-05-29T19:57:11.775Z,20.90
2018-05-29T19:59:41.340Z,20.90
2018-05-29T20:02:10.931Z,20.80
2018-05-29T20:04:40.550Z,20.80
2018-05-29T20:07:10.102Z,20.80
2018-05-29T20:09:39.046Z,20.80
2018-05-29T20:12:08.653Z,20.80
2018-05-29T20:14:37.460Z,20.80
2018-05-29T20:17:06.281Z,20.90
2018-05-29T20:19:35.847Z,20.90
2018-05-29T20:22:04.670Z,20.90
2018-05-29T20:24:33.530Z,20.90
2018-05-29T20:27:02.335Z,20.80
2018-05-29T20:29:31.152Z,20.80
2018-05-29T20:32:00.025Z,20.70
2018-05-29T20:34:28.920Z,20.70
2018-05-29T20:36:57.768Z,20.70
2018-05-29T20:39:27.322Z,20.70
2018-05-29T20:41:56.208Z,20.70
2018-05-29T20:44:25.806Z,20.60
2018-05-29T20:46:55.391Z,20.60
2018-05-29T20:49:24.188Z,20.60
2018-05-29T20:51:53.032Z,20.60
2018-05-29T20:54:21.896Z,20.50
2018-05-29T20:56:50.704Z,20.50
2018-05-29T20:59:19.532Z,20.50
2018-05-29T21:01:48.438Z,20.50
2018-05-29T21:04:17.980Z,20.50
2018-05-29T21:06:46.820Z,20.50
2018-05-29T21:09:15.658Z,20.50
2018-05-29T21:11:45.712Z,20.50
2018-05-29T21:14:15.274Z,20.40
2018-05-29T21:16:44.102Z,20.40
2018-05-29T21:19:12.922Z,20.40
2018-05-29T21:21:42.482Z,20.40
2018-05-29T21:24:12.105Z,20.40
2018-05-29T21:26:41.674Z,20.40
2018-05-29T21:29:10.574Z,20.40
2018-05-29T21:31:39.392Z,20.40
2018-05-29T21:34:08.197Z,20.40
2018-05-29T21:36:37.007Z,20.10
2018-05-29T21:39:06.618Z,20.40
2018-05-29T21:41:36.219Z,20.30
2018-05-29T21:44:05.790Z,20.30
2018-05-29T21:46:34.599Z,20.30
2018-05-29T21:49:04.193Z,20.30
2018-05-29T21:51:33.104Z,20.30
2018-05-29T21:54:01.965Z,20.30
2018-05-29T21:56:33.120Z,20.30
2018-05-29T21:59:01.935Z,20.30
2018-05-29T22:01:30.789Z,20.30
2018-05-29T22:04:03.607Z,20.30
2018-05-29T22:06:33.301Z,20.30
2018-05-29T22:09:02.868Z,20.30
2018-05-29T22:11:31.724Z,20.30
2018-05-29T22:14:00.516Z,20.30
2018-05-29T22:16:29.362Z,20.30
2018-05-29T22:18:58.594Z,20.30
2018-05-29T22:21:27.392Z,20.20
2018-05-29T22:23:56.203Z,20.20
2018-05-29T22:26:25.027Z,20.20
2018-05-29T22:28:54.717Z,20.10
2018-05-29T22:31:24.356Z,20.10
2018-05-29T22:33:53.192Z,20.10
2018-05-29T22:36:21.978Z,20.00
2018-05-29T22:38:50.774Z,20.00
2018-05-29T22:41:19.593Z,20.00
2018-05-29T22:43:48.444Z,20.00
2018-05-29T22:46:18.020Z,19.90
2018-05-29T22:48:46.854Z,19.90
2018-05-29T22:51:16.419Z,19.90
2018-05-29T22:53:46.012Z,19.90
2018-05-29T22:56:14.861Z,19.90
2018-05-29T22:58:44.439Z,19.80
2018-05-29T23:01:13.248Z,19.80
2018-05-29T23:03:42.310Z,19.80
2018-05-29T23:06:11.124Z,19.90
2018-05-29T23:08:39.934Z,19.80
2018-05-29T23:11:09.493Z,19.80
2018-05-29T23:13:38.692Z,19.70
2018-05-29T23:16:08.300Z,19.80
2018-05-29T23:18:37.891Z,19.70
2018-05-29T23:21:06.722Z,19.70
2018-05-29T23:23:35.535Z,19.70
2018-05-29T23:26:04.345Z,19.70
2018-05-29T23:28:33.126Z,19.70
2018-05-29T23:31:01.937Z,19.80
2018-05-29T23:33:46.360Z,19.80
2018-05-29T23:36:15.235Z,19.70
2018-05-29T23:38:44.843Z,19.80
2018-05-29T23:41:14.396Z,19.70
2018-05-29T23:43:44.098Z,19.70
2018-05-29T23:46:12.957Z,19.70
2018-05-29T23:48:41.791Z,19.70
2018-05-29T23:51:10.640Z,19.60
2018-05-29T23:53:40.970Z,19.60
2018-05-29T23:56:10.524Z,19.50
2018-05-29T23:58:40.202Z,19.50
